createdAt,value
2023-03-26T00:02:46.031Z,99.90
2023-03-26T00:07:48.768Z,99.90
2023-03-26T00:12:51.716Z,99.90
2023-03-26T00:17:54.485Z,99.90
2023-03-26T00:22:56.868Z,99.90
2023-03-26T00:27:59.250Z,99.90
2023-03-26T00:33:02.467Z,99.90
2023-03-26T00:38:04.825Z,99.90
2023-03-26T00:43:18.635Z,99.90
2023-03-26T00:48:31.364Z,99.90
2023-03-26T00:53:41.262Z,99.90
2023-03-26T00:58:44.273Z,99.90
2023-03-26T01:04:04.898Z,99.90
2023-03-26T01:09:21.571Z,99.90
2023-03-26T01:14:26.901Z,99.90
2023-03-26T01:19:34.187Z,99.90
2023-03-26T01:24:37.575Z,99.90
2023-03-26T01:30:24.242Z,99.90
2023-03-26T01:35:45.908Z,99.90
2023-03-26T01:40:52.138Z,99.90
2023-03-26T01:45:56.503Z,99.90
2023-03-26T01:50:59.084Z,99.90
2023-03-26T01:56:29.292Z,99.90
2023-03-26T02:02:04.845Z,99.90
2023-03-26T02:07:14.838Z,99.90
2023-03-26T02:12:18.705Z,99.90
2023-03-26T02:17:24.338Z,99.90
2023-03-26T02:22:30.200Z,99.90
2023-03-26T02:27:34.367Z,99.90
2023-03-26T02:32:36.993Z,99.90
2023-03-26T02:37:40.095Z,99.90
2023-03-26T02:42:50.779Z,99.90
2023-03-26T02:47:53.191Z,99.90
2023-03-26T02:53:16.105Z,99.90
2023-03-26T02:58:25.251Z,99.90
2023-03-26T03:03:28.017Z,99.90
2023-03-26T03:08:39.256Z,99.90
2023-03-26T03:13:44.785Z,99.90
2023-03-26T03:18:54.541Z,99.90
2023-03-26T03:24:00.209Z,99.90
2023-03-26T03:29:06.579Z,99.90
2023-03-26T03:34:10.899Z,99.90
2023-03-26T03:39:19.706Z,99.90
2023-03-26T03:44:22.182Z,99.90
2023-03-26T03:49:24.958Z,99.90
2023-03-26T03:54:28.312Z,99.90
2023-03-26T03:59:47.839Z,99.90
2023-03-26T04:04:52.851Z,99.90
2023-03-26T04:09:57.210Z,99.90
2023-03-26T04:15:01.368Z,99.90
2023-03-26T04:20:06.483Z,99.90
2023-03-26T04:25:11.128Z,99.90
2023-03-26T04:30:21.239Z,99.90
2023-03-26T04:35:35.978Z,99.90
2023-03-26T04:40:42.285Z,99.90
2023-03-26T04:46:10.535Z,99.90
2023-03-26T04:51:25.806Z,99.90
2023-03-26T04:57:00.996Z,99.90
2023-03-26T05:02:23.253Z,99.90
2023-03-26T05:07:28.580Z,99.90
2023-03-26T05:12:32.733Z,99.90
2023-03-26T05:17:42.977Z,99.90
2023-03-26T05:22:53.842Z,99.90
2023-03-26T05:28:07.749Z,99.90
2023-03-26T05:33:27.477Z,99.90
2023-03-26T05:38:37.673Z,99.90
2023-03-26T05:43:44.867Z,99.90
2023-03-26T05:48:52.075Z,99.90
2023-03-26T05:53:54.712Z,99.90
2023-03-26T05:59:16.151Z,99.90
2023-03-26T06:04:41.071Z,99.90
2023-03-26T06:10:05.917Z,99.90
2023-03-26T06:15:09.264Z,99.90
2023-03-26T06:20:30.129Z,99.90
2023-03-26T06:25:35.878Z,99.90
2023-03-26T06:31:13.542Z,99.90
2023-03-26T06:36:24.916Z,99.90
2023-03-26T06:41:27.461Z,99.90
2023-03-26T06:46:37.025Z,99.90
2023-03-26T06:51:58.032Z,99.90
2023-03-26T06:57:18.808Z,99.90
2023-03-26T07:02:41.363Z,99.90
2023-03-26T07:08:02.943Z,99.90
2023-03-26T07:13:23.531Z,99.90
2023-03-26T07:18:25.869Z,99.90
2023-03-26T07:23:28.936Z,99.90
2023-03-26T07:29:04.694Z,99.90
2023-03-26T07:34:40.664Z,99.90
2023-03-26T07:39:59.181Z,99.90
2023-03-26T07:45:14.613Z,99.90
2023-03-26T07:50:26.402Z,99.90
2023-03-26T07:56:00.665Z,99.90
2023-03-26T08:01:42.134Z,99.90
2023-03-26T08:07:11.376Z,99.90
2023-03-26T08:13:15.546Z,99.90
2023-03-26T08:18:44.630Z,99.90
2023-03-26T08:24:08.257Z,99.80
2023-03-26T08:29:41.269Z,98.80
2023-03-26T08:34:44.204Z,97.20
2023-03-26T08:39:47.773Z,96.80
2023-03-26T08:45:09.084Z,95.80
2023-03-26T08:50:43.200Z,96.50
2023-03-26T08:55:48.291Z,96.40
2023-03-26T09:01:08.547Z,95.70
2023-03-26T09:06:21.036Z,94.60
2023-03-26T09:11:29.305Z,94.90
2023-03-26T09:16:55.942Z,95.00
2023-03-26T09:22:10.560Z,93.90
2023-03-26T09:27:24.929Z,93.90
2023-03-26T09:32:52.105Z,93.60
2023-03-26T09:38:12.299Z,93.50
2023-03-26T09:43:46.826Z,93.10
2023-03-26T09:49:03.733Z,92.50
2023-03-26T09:54:18.461Z,91.70
2023-03-26T09:59:42.958Z,90.10
2023-03-26T10:05:08.356Z,89.20
2023-03-26T10:10:41.618Z,88.90
2023-03-26T10:16:08.089Z,88.70
2023-03-26T10:21:34.787Z,85.20
2023-03-26T10:27:09.711Z,85.70
2023-03-26T10:32:08.610Z,91.90
2023-03-26T10:37:31.271Z,96.10
2023-03-26T10:43:12.814Z,99.90
2023-03-26T10:48:43.053Z,99.90
2023-03-26T10:53:53.808Z,99.90
2023-03-26T10:58:57.168Z,99.90
2023-03-26T11:04:27.988Z,99.90
2023-03-26T11:10:09.278Z,99.90
2023-03-26T11:15:32.652Z,99.90
2023-03-26T11:20:47.215Z,99.90
2023-03-26T11:26:13.601Z,99.90
2023-03-26T11:31:36.890Z,92.90
2023-03-26T11:36:43.849Z,93.10
2023-03-26T11:41:47.454Z,84.80
2023-03-26T11:47:10.065Z,82.70
2023-03-26T11:52:12.617Z,82.40
2023-03-26T11:57:33.393Z,77.80
2023-03-26T12:02:40.614Z,75.70
2023-03-26T12:08:00.209Z,78.70
2023-03-26T12:13:16.249Z,77.90
2023-03-26T12:18:26.522Z,79.20
2023-03-26T12:23:42.378Z,82.40
2023-03-26T12:28:47.078Z,81.90
2023-03-26T12:34:13.511Z,86.90
2023-03-26T12:40:09.140Z,99.90
2023-03-26T12:45:02.511Z,99.90
2023-03-26T12:50:09.925Z,99.90
2023-03-26T12:55:30.385Z,99.90
2023-03-26T13:00:43.557Z,99.90
2023-03-26T13:06:11.674Z,95.60
2023-03-26T13:11:25.538Z,94.50
2023-03-26T13:16:35.344Z,88.00
2023-03-26T13:22:05.726Z,78.20
2023-03-26T13:27:08.777Z,71.50
2023-03-26T13:32:42.505Z,68.90
2023-03-26T13:37:53.395Z,66.30
2023-03-26T13:43:11.187Z,63.60
2023-03-26T13:48:19.234Z,61.50
2023-03-26T13:53:28.516Z,62.80
2023-03-26T13:58:52.505Z,69.70
2023-03-26T14:04:06.358Z,74.00
2023-03-26T14:09:29.690Z,78.00
2023-03-26T14:14:49.011Z,79.20
2023-03-26T14:20:22.520Z,70.10
2023-03-26T14:25:51.044Z,69.40
2023-03-26T14:31:14.539Z,70.70
2023-03-26T14:36:28.030Z,71.60
2023-03-26T14:41:49.102Z,70.80
2023-03-26T14:46:57.688Z,70.00
2023-03-26T14:52:27.962Z,70.00
2023-03-26T14:57:38.903Z,68.80
2023-03-26T15:03:09.177Z,68.30
2023-03-26T15:08:34.356Z,68.80
2023-03-26T15:13:40.799Z,69.60
2023-03-26T15:19:02.122Z,69.90
2023-03-26T15:24:37.829Z,70.70
2023-03-26T15:29:49.250Z,71.70
2023-03-26T15:35:07.175Z,72.20
2023-03-26T15:40:43.036Z,72.40
2023-03-26T15:45:56.341Z,72.20
2023-03-26T15:51:17.954Z,72.70
2023-03-26T15:56:26.048Z,74.20
2023-03-26T16:02:02.805Z,72.90
2023-03-26T16:07:23.905Z,73.40
2023-03-26T16:12:33.015Z,72.40
2023-03-26T16:18:11.944Z,72.00
2023-03-26T16:23:47.509Z,72.50
2023-03-26T16:29:03.904Z,70.90
2023-03-26T16:34:08.325Z,70.60
2023-03-26T16:39:23.820Z,71.50
2023-03-26T16:44:37.878Z,71.50
2023-03-26T16:50:08.820Z,72.90
2023-03-26T16:55:43.185Z,74.30
2023-03-26T17:00:55.107Z,74.80
2023-03-26T17:06:34.051Z,75.50
2023-03-26T17:12:07.270Z,76.20
2023-03-26T17:17:40.294Z,77.30
2023-03-26T17:22:47.722Z,78.90
2023-03-26T17:28:17.924Z,78.80
2023-03-26T17:33:26.842Z,80.00
2023-03-26T17:38:29.093Z,80.90
2023-03-26T17:43:51.744Z,82.20
2023-03-26T17:49:12.026Z,83.60
2023-03-26T17:54:32.555Z,83.90
2023-03-26T17:59:38.797Z,85.70
2023-03-26T18:04:45.721Z,87.60
2023-03-26T18:10:17.225Z,89.00
2023-03-26T18:15:46.760Z,89.90
2023-03-26T18:20:51.225Z,91.50
2023-03-26T18:26:09.574Z,92.40
2023-03-26T18:31:23.016Z,93.50
2023-03-26T18:36:28.179Z,94.00
2023-03-26T18:41:41.723Z,95.00
2023-03-26T18:46:44.910Z,95.30
2023-03-26T18:51:56.525Z,96.70
2023-03-26T18:57:16.156Z,97.80
2023-03-26T19:02:20.589Z,98.20
2023-03-26T19:07:25.955Z,99.20
2023-03-26T19:12:33.199Z,99.90
2023-03-26T19:17:46.003Z,99.90
2023-03-26T19:22:49.767Z,99.90
2023-03-26T19:27:52.568Z,99.90
2023-03-26T19:32:55.729Z,99.90
2023-03-26T19:38:26.266Z,99.90
2023-03-26T19:43:28.997Z,99.90
2023-03-26T19:48:46.197Z,99.90
2023-03-26T19:53:55.036Z,99.90
2023-03-26T19:58:57.541Z,99.90
2023-03-26T20:04:04.082Z,99.90
2023-03-26T20:09:06.428Z,99.90
2023-03-26T20:14:16.941Z,99.90
2023-03-26T20:19:20.577Z,99.90
2023-03-26T20:24:24.698Z,99.90
2023-03-26T20:29:28.709Z,99.90
2023-03-26T20:34:32.263Z,99.90
2023-03-26T20:39:34.729Z,99.90
2023-03-26T20:44:37.296Z,99.90
2023-03-26T20:49:40.298Z,99.90
2023-03-26T20:54:42.795Z,99.90
2023-03-26T20:59:45.687Z,99.90
2023-03-26T21:04:48.305Z,99.90
2023-03-26T21:09:50.927Z,99.90
2023-03-26T21:14:55.867Z,99.90
2023-03-26T21:20:06.520Z,99.90
2023-03-26T21:25:17.312Z,99.90
2023-03-26T21:30:20.083Z,99.90
2023-03-26T21:35:22.823Z,99.90
2023-03-26T21:40:25.902Z,99.90
2023-03-26T21:45:28.834Z,99.90
2023-03-26T21:50:31.585Z,99.90
2023-03-26T21:56:00.138Z,99.90
2023-03-26T22:01:31.513Z,99.90
2023-03-26T22:06:43.801Z,99.90
2023-03-26T22:11:46.312Z,99.90
2023-03-26T22:16:48.766Z,99.90
2023-03-26T22:21:51.457Z,99.90
2023-03-26T22:26:53.842Z,99.90
2023-03-26T22:31:56.395Z,99.90
2023-03-26T22:36:58.670Z,99.90
2023-03-26T22:42:03.719Z,99.90
2023-03-26T22:47:06.049Z,99.90
2023-03-26T22:52:08.544Z,99.90
2023-03-26T22:57:10.997Z,99.90
2023-03-26T23:02:13.611Z,99.90
2023-03-26T23:07:15.930Z,99.90
2023-03-26T23:12:18.614Z,99.90
2023-03-26T23:17:21.296Z,99.90
2023-03-26T23:22:23.682Z,99.90
2023-03-26T23:27:26.150Z,99.90
2023-03-26T23:32:28.539Z,99.90
2023-03-26T23:37:34.907Z,99.90
2023-03-26T23:42:37.719Z,99.90
2023-03-26T23:47:42.261Z,99.90
2023-03-26T23:52:45.862Z,99.90
2023-03-26T23:57:48.596Z,99.90
